Time;durP1;ratioP1;P1;durP2;ratioP2;P2;SDS_P1;SDS_P2;PMS_P1;PMS_P2;Temp;Humidity;BMP_temperature;BMP_pressure;BME280_temperature;BME280_humidity;BME280_pressure;Samples;Min_cycle;Max_cycle;Signal;HPM_P1;HPM_P2
2023/04/30 00:01:41;;;;;;;16.60;12.83;;;;;;;;;;5013732;28;20571;-69
2023/04/30 00:04:07;;;;;;;17.70;13.00;;;;;;;;;;5013948;28;20638;-69
2023/04/30 00:06:33;;;;;;;14.57;12.73;;;;;;;;;;5013777;28;20609;-69
2023/04/30 00:08:59;;;;;;;17.73;12.57;;;;;;;;;;5013817;28;20650;-70
2023/04/30 00:11:25;;;;;;;14.23;12.47;;;;;;;;;;4995976;28;20203;-70
2023/04/30 00:13:51;;;;;;;16.97;12.73;;;;;;;;;;4995873;28;20180;-69
2023/04/30 00:16:17;;;;;;;16.30;12.33;;;;;;;;;;5013608;28;20246;-70
2023/04/30 00:18:44;;;;;;;17.83;11.70;;;;;;;;;;5013465;28;20554;-70
2023/04/30 00:21:09;;;;;;;13.13;11.30;;;;;;;;;;5017325;28;20274;-70
2023/04/30 00:23:35;;;;;;;15.13;12.47;;;;;;;;;;5017796;28;20207;-69
2023/04/30 00:26:01;;;;;;;14.77;12.30;;;;;;;;;;5017669;28;20230;-69
2023/04/30 00:28:28;;;;;;;15.87;12.03;;;;;;;;;;5017857;28;20254;-70
2023/04/30 00:30:54;;;;;;;14.07;11.77;;;;;;;;;;5025422;28;20215;-70
2023/04/30 00:33:20;;;;;;;16.13;11.83;;;;;;;;;;5033139;28;20184;-70
2023/04/30 00:35:46;;;;;;;18.57;11.60;;;;;;;;;;5032502;28;20204;-69
2023/04/30 00:38:12;;;;;;;14.17;11.60;;;;;;;;;;5032896;28;20176;-70
2023/04/30 00:40:39;;;;;;;14.97;12.53;;;;;;;;;;5016069;28;20267;-70
2023/04/30 00:43:05;;;;;;;14.77;12.30;;;;;;;;;;5016244;28;20680;-70
2023/04/30 00:45:31;;;;;;;15.70;12.63;;;;;;;;;;5037670;28;20176;-69
2023/04/30 00:47:57;;;;;;;14.10;11.80;;;;;;;;;;4999672;28;20680;-69
2023/04/30 00:50:23;;;;;;;15.07;12.33;;;;;;;;;;4999421;28;20227;-69
2023/04/30 00:52:50;;;;;;;15.70;12.40;;;;;;;;;;5017022;28;20227;-69
2023/04/30 00:55:16;;;;;;;14.87;12.13;;;;;;;;;;4999307;28;20204;-69
2023/04/30 00:57:42;;;;;;;15.97;12.63;;;;;;;;;;5016993;28;20259;-69
2023/04/30 01:00:10;;;;;;;18.00;12.07;;;;;;;;;;4999274;28;20223;-71
2023/04/30 01:02:39;;;;;;;14.80;11.97;;;;;;;;;;5016830;28;20194;-69
2023/04/30 01:05:06;;;;;;;18.13;13.37;;;;;;;;;;4999140;28;20207;-70
2023/04/30 01:07:32;;;;;;;15.10;13.07;;;;;;;;;;5017357;28;20188;-69
2023/04/30 01:09:58;;;;;;;13.00;11.33;;;;;;;;;;5017005;28;20665;-70
2023/04/30 01:12:39;;;;;;;15.70;12.43;;;;;;;;;;4999066;28;20204;-70
2023/04/30 01:15:20;;;;;;;14.97;12.17;;;;;;;;;;4998853;28;20195;-70
2023/04/30 01:18:07;;;;;;;17.10;13.27;;;;;;;;;;4998902;28;20203;-68
2023/04/30 01:20:33;;;;;;;15.67;13.13;;;;;;;;;;5003572;28;20582;-70
2023/04/30 01:23:13;;;;;;;16.57;13.33;;;;;;;;;;5016674;28;20180;-70
2023/04/30 01:25:39;;;;;;;16.33;13.87;;;;;;;;;;5016427;28;20197;-70
2023/04/30 01:28:08;;;;;;;15.90;13.13;;;;;;;;;;5016507;28;20183;-70
2023/04/30 01:30:35;;;;;;;17.47;14.10;;;;;;;;;;5016377;28;20196;-70
2023/04/30 01:33:01;;;;;;;19.73;15.37;;;;;;;;;;5017123;28;20191;-70
2023/04/30 01:35:42;;;;;;;19.77;14.00;;;;;;;;;;5017365;28;20202;-70
2023/04/30 01:38:24;;;;;;;17.90;14.80;;;;;;;;;;4999108;28;20180;-71
2023/04/30 01:40:54;;;;;;;16.97;13.70;;;;;;;;;;5016551;28;20195;-70
2023/04/30 01:43:43;;;;;;;18.83;14.73;;;;;;;;;;5017373;28;20178;-69
2023/04/30 01:46:28;;;;;;;18.37;14.33;;;;;;;;;;5019062;28;20535;-69
2023/04/30 01:48:55;;;;;;;13.87;12.13;;;;;;;;;;4998340;28;20706;-69
2023/04/30 01:51:41;;;;;;;14.23;12.57;;;;;;;;;;5015952;28;20559;-69
2023/04/30 01:54:22;;;;;;;14.73;13.20;;;;;;;;;;5015910;28;20200;-69
2023/04/30 01:57:08;;;;;;;17.27;12.97;;;;;;;;;;5016139;28;20176;-69
2023/04/30 01:59:35;;;;;;;15.73;13.07;;;;;;;;;;4998204;28;20183;-69
2023/04/30 02:02:01;;;;;;;15.70;12.37;;;;;;;;;;4998227;28;20207;-69
2023/04/30 02:04:27;;;;;;;14.67;12.90;;;;;;;;;;5015974;28;20183;-69
2023/04/30 02:06:53;;;;;;;17.97;13.37;;;;;;;;;;5015887;28;20179;-70
2023/04/30 02:09:19;;;;;;;18.77;14.37;;;;;;;;;;5015986;28;20179;-69
2023/04/30 02:11:45;;;;;;;20.90;14.60;;;;;;;;;;5015792;28;20204;-70
2023/04/30 02:14:11;;;;;;;18.00;13.67;;;;;;;;;;5015702;28;20200;-68
2023/04/30 02:16:37;;;;;;;18.17;13.83;;;;;;;;;;5015800;28;20646;-70
2023/04/30 02:19:03;;;;;;;18.53;14.63;;;;;;;;;;4997828;28;20176;-70
2023/04/30 02:21:29;;;;;;;21.77;15.03;;;;;;;;;;4997942;28;20573;-70
2023/04/30 02:23:54;;;;;;;17.17;14.57;;;;;;;;;;5015396;28;20176;-70
2023/04/30 02:26:20;;;;;;;18.73;15.33;;;;;;;;;;5015954;28;20180;-70
2023/04/30 02:28:46;;;;;;;18.20;14.57;;;;;;;;;;4997802;28;20272;-71
2023/04/30 02:31:12;;;;;;;20.37;15.50;;;;;;;;;;5015522;28;20214;-70
2023/04/30 02:33:38;;;;;;;18.20;15.60;;;;;;;;;;5015274;28;20238;-70
2023/04/30 02:36:04;;;;;;;21.33;15.73;;;;;;;;;;5015243;28;20579;-69
2023/04/30 02:38:30;;;;;;;21.37;15.80;;;;;;;;;;5015029;28;20180;-70
2023/04/30 02:40:56;;;;;;;17.87;15.70;;;;;;;;;;5014946;28;20614;-70
2023/04/30 02:43:22;;;;;;;19.07;16.20;;;;;;;;;;5014416;28;20187;-70
2023/04/30 02:45:48;;;;;;;20.73;16.80;;;;;;;;;;5015015;28;20227;-69
2023/04/30 02:48:14;;;;;;;19.83;16.70;;;;;;;;;;5015356;28;20176;-70
2023/04/30 02:50:40;;;;;;;20.33;17.00;;;;;;;;;;5014787;28;20196;-70
2023/04/30 02:53:06;;;;;;;21.60;17.13;;;;;;;;;;5014841;28;20184;-71
2023/04/30 02:55:32;;;;;;;23.03;16.90;;;;;;;;;;4997091;28;20207;-70
2023/04/30 02:57:58;;;;;;;20.80;16.43;;;;;;;;;;4997124;28;20558;-70
2023/04/30 03:00:24;;;;;;;19.47;17.00;;;;;;;;;;5014582;28;20200;-70
2023/04/30 03:02:50;;;;;;;19.67;16.17;;;;;;;;;;5014963;28;20645;-70
2023/04/30 03:05:16;;;;;;;17.77;15.53;;;;;;;;;;5014902;28;20190;-69
2023/04/30 03:07:42;;;;;;;19.43;16.53;;;;;;;;;;4997163;28;20245;-70
2023/04/30 03:10:08;;;;;;;20.27;16.47;;;;;;;;;;5014703;28;20558;-71
2023/04/30 03:12:34;;;;;;;19.00;16.33;;;;;;;;;;4997017;28;20191;-70
2023/04/30 03:15:00;;;;;;;20.60;16.93;;;;;;;;;;4997083;28;20206;-70
2023/04/30 03:17:26;;;;;;;18.67;16.63;;;;;;;;;;4996640;28;20186;-70
2023/04/30 03:19:52;;;;;;;19.13;16.17;;;;;;;;;;5014414;28;20211;-70
2023/04/30 03:22:19;;;;;;;20.27;15.83;;;;;;;;;;4996553;28;20250;-70
2023/04/30 03:24:45;;;;;;;20.37;16.07;;;;;;;;;;5014283;28;20171;-69
2023/04/30 03:27:11;;;;;;;19.57;17.47;;;;;;;;;;4996511;28;20208;-70
2023/04/30 03:29:37;;;;;;;22.40;17.63;;;;;;;;;;5014406;28;20684;-70
2023/04/30 03:32:03;;;;;;;22.70;17.80;;;;;;;;;;4996716;28;20208;-70
2023/04/30 03:34:30;;;;;;;21.03;17.13;;;;;;;;;;5013944;28;20692;-70
2023/04/30 03:36:56;;;;;;;22.83;16.97;;;;;;;;;;5014069;28;20179;-70
2023/04/30 03:39:22;;;;;;;22.10;18.00;;;;;;;;;;4996390;28;20187;-70
2023/04/30 03:41:48;;;;;;;20.03;17.03;;;;;;;;;;5013978;28;20207;-70
2023/04/30 03:44:14;;;;;;;19.10;16.00;;;;;;;;;;5014335;28;20386;-70
2023/04/30 03:46:43;;;;;;;18.53;16.57;;;;;;;;;;5013941;28;20185;-70
2023/04/30 03:49:09;;;;;;;18.80;16.80;;;;;;;;;;5014184;28;20713;-70
2023/04/30 03:51:38;;;;;;;25.43;17.67;;;;;;;;;;5009351;28;20208;-71
2023/04/30 03:54:05;;;;;;;22.50;17.43;;;;;;;;;;5014457;28;20254;-70
2023/04/30 03:56:32;;;;;;;23.93;17.27;;;;;;;;;;5032346;28;20179;-70
2023/04/30 03:58:58;;;;;;;20.87;17.63;;;;;;;;;;5033339;28;20175;-70
2023/04/30 04:01:24;;;;;;;24.17;17.07;;;;;;;;;;5045662;23;20226;-69
2023/04/30 04:03:50;;;;;;;18.57;16.57;;;;;;;;;;5034129;28;20175;-70
2023/04/30 04:06:16;;;;;;;21.33;17.37;;;;;;;;;;5016058;28;20183;-70
2023/04/30 04:08:42;;;;;;;23.37;17.67;;;;;;;;;;5016111;28;20179;-70
2023/04/30 04:11:08;;;;;;;23.97;18.07;;;;;;;;;;5033375;28;20187;-68
2023/04/30 04:13:34;;;;;;;21.23;16.87;;;;;;;;;;5016010;28;20652;-71
2023/04/30 04:16:00;;;;;;;22.03;16.90;;;;;;;;;;5033189;28;20231;-70
2023/04/30 04:18:26;;;;;;;21.67;17.33;;;;;;;;;;5033295;28;20289;-70
2023/04/30 04:20:52;;;;;;;19.87;16.83;;;;;;;;;;5033316;28;20178;-71
2023/04/30 04:23:18;;;;;;;19.77;17.40;;;;;;;;;;5015674;28;20171;-70
2023/04/30 04:25:48;;;;;;;20.53;16.77;;;;;;;;;;5034244;28;20179;-68
2023/04/30 04:28:14;;;;;;;21.73;18.07;;;;;;;;;;5033910;28;20175;-70
2023/04/30 04:30:40;;;;;;;23.00;15.63;;;;;;;;;;5016036;28;20623;-70
2023/04/30 04:33:07;;;;;;;19.63;17.00;;;;;;;;;;5033243;28;20580;-70
2023/04/30 04:35:33;;;;;;;21.33;17.30;;;;;;;;;;5015414;28;20202;-70
2023/04/30 04:38:00;;;;;;;23.53;16.97;;;;;;;;;;5015568;28;20190;-71
2023/04/30 04:40:26;;;;;;;23.80;19.87;;;;;;;;;;5033261;28;20599;-70
2023/04/30 04:42:52;;;;;;;21.80;17.73;;;;;;;;;;5015544;28;20198;-68
2023/04/30 04:45:19;;;;;;;20.97;17.47;;;;;;;;;;5033857;28;20237;-70
2023/04/30 04:47:45;;;;;;;28.80;20.13;;;;;;;;;;5033646;28;20185;-70
2023/04/30 04:50:11;;;;;;;23.57;18.17;;;;;;;;;;5033895;28;20179;-68
2023/04/30 04:52:38;;;;;;;35.40;25.63;;;;;;;;;;5015325;28;20290;-67
2023/04/30 04:55:04;;;;;;;24.93;19.90;;;;;;;;;;5033384;28;20199;-68
2023/04/30 04:57:30;;;;;;;20.50;18.17;;;;;;;;;;5015220;28;20176;-68
2023/04/30 04:59:56;;;;;;;22.47;16.30;;;;;;;;;;5033059;28;20186;-69
2023/04/30 05:02:22;;;;;;;23.57;16.60;;;;;;;;;;5014910;28;20246;-68
2023/04/30 05:04:52;;;;;;;22.50;17.10;;;;;;;;;;5015146;28;20183;-68
2023/04/30 05:07:18;;;;;;;19.53;16.33;;;;;;;;;;5036972;28;20264;-68
2023/04/30 05:09:45;;;;;;;19.93;16.27;;;;;;;;;;5019702;28;20187;-68
2023/04/30 05:12:11;;;;;;;19.53;14.60;;;;;;;;;;5037865;28;20693;-68
2023/04/30 05:14:37;;;;;;;19.67;16.07;;;;;;;;;;5020122;28;20210;-68
2023/04/30 05:17:03;;;;;;;17.67;13.43;;;;;;;;;;5021366;28;20319;-68
2023/04/30 05:19:29;;;;;;;19.33;15.43;;;;;;;;;;5037803;28;20177;-68
2023/04/30 05:21:55;;;;;;;19.93;15.33;;;;;;;;;;5037988;28;20623;-69
2023/04/30 05:24:21;;;;;;;20.57;13.43;;;;;;;;;;5037163;28;20207;-68
2023/04/30 05:26:47;;;;;;;15.43;13.27;;;;;;;;;;5037439;28;20648;-69
2023/04/30 05:29:13;;;;;;;17.07;14.33;;;;;;;;;;5018785;28;20187;-68
2023/04/30 05:31:39;;;;;;;16.17;13.73;;;;;;;;;;5036465;28;20203;-68
2023/04/30 05:34:05;;;;;;;15.20;11.87;;;;;;;;;;5018687;28;20186;-68
2023/04/30 05:36:31;;;;;;;15.50;12.60;;;;;;;;;;5018477;28;20645;-68
2023/04/30 05:38:57;;;;;;;15.07;11.13;;;;;;;;;;5036441;28;20182;-68
2023/04/30 05:41:23;;;;;;;14.90;11.50;;;;;;;;;;5035978;28;20302;-68
2023/04/30 05:43:49;;;;;;;12.97;11.60;;;;;;;;;;5018322;28;20190;-69
2023/04/30 05:46:15;;;;;;;13.83;10.80;;;;;;;;;;5035753;28;20175;-68
2023/04/30 05:48:41;;;;;;;13.30;11.90;;;;;;;;;;5018236;28;20182;-68
2023/04/30 05:51:07;;;;;;;14.00;11.23;;;;;;;;;;5036495;28;20206;-69
2023/04/30 05:53:33;;;;;;;14.77;11.87;;;;;;;;;;5031097;28;20179;-70
2023/04/30 05:55:59;;;;;;;14.33;12.10;;;;;;;;;;5052559;28;20222;-69
2023/04/30 05:58:25;;;;;;;15.30;12.03;;;;;;;;;;5033116;28;20179;-69
2023/04/30 06:00:51;;;;;;;17.07;12.67;;;;;;;;;;5041509;28;20171;-69
2023/04/30 06:03:21;;;;;;;14.20;11.50;;;;;;;;;;5018032;28;20195;-68
2023/04/30 06:05:47;;;;;;;15.97;11.57;;;;;;;;;;5017818;28;20194;-69
2023/04/30 06:08:13;;;;;;;14.13;11.47;;;;;;;;;;5017495;28;20198;-69
2023/04/30 06:10:39;;;;;;;14.00;11.80;;;;;;;;;;5017312;28;20270;-68
2023/04/30 06:13:06;;;;;;;17.30;11.87;;;;;;;;;;5017235;28;20203;-68
2023/04/30 06:15:32;;;;;;;14.80;11.23;;;;;;;;;;5034934;28;20566;-66
2023/04/30 06:17:58;;;;;;;14.03;12.53;;;;;;;;;;5016715;28;20178;-68
2023/04/30 06:20:25;;;;;;;12.70;10.93;;;;;;;;;;5035489;28;20633;-68
2023/04/30 06:22:51;;;;;;;20.87;12.57;;;;;;;;;;5035234;28;20549;-69
2023/04/30 06:25:18;;;;;;;13.40;11.07;;;;;;;;;;5035133;28;20187;-68
2023/04/30 06:27:45;;;;;;;11.83;10.47;;;;;;;;;;5017003;28;20183;-69
2023/04/30 06:30:11;;;;;;;11.80;10.60;;;;;;;;;;5016995;28;20187;-69
2023/04/30 06:32:37;;;;;;;12.07;10.60;;;;;;;;;;5016855;28;20226;-68
2023/04/30 06:35:03;;;;;;;12.23;10.93;;;;;;;;;;5034932;28;20677;-68
2023/04/30 06:37:29;;;;;;;11.70;10.20;;;;;;;;;;5017501;28;20559;-68
2023/04/30 06:39:54;;;;;;;12.90;10.90;;;;;;;;;;5034937;28;20171;-68
2023/04/30 06:42:20;;;;;;;12.63;11.30;;;;;;;;;;5034827;28;20222;-66
2023/04/30 06:44:46;;;;;;;14.60;11.47;;;;;;;;;;5034723;28;20183;-68
2023/04/30 06:47:12;;;;;;;14.10;11.23;;;;;;;;;;5034271;28;20250;-69
2023/04/30 06:49:38;;;;;;;13.17;11.33;;;;;;;;;;5034960;28;20641;-68
2023/04/30 06:52:04;;;;;;;14.03;11.07;;;;;;;;;;5034855;28;20286;-68
2023/04/30 06:54:30;;;;;;;11.77;10.57;;;;;;;;;;5034546;28;20234;-68
2023/04/30 06:56:56;;;;;;;13.03;10.97;;;;;;;;;;5034875;28;20263;-68
2023/04/30 06:59:22;;;;;;;16.67;11.77;;;;;;;;;;5034811;28;20199;-68
2023/04/30 07:01:48;;;;;;;13.20;10.83;;;;;;;;;;5034363;28;20216;-68
2023/04/30 07:04:14;;;;;;;13.70;10.83;;;;;;;;;;5034757;28;20202;-66
2023/04/30 07:06:40;;;;;;;16.40;12.00;;;;;;;;;;5016803;28;20188;-68
2023/04/30 07:09:06;;;;;;;17.57;11.57;;;;;;;;;;5034042;28;20642;-68
2023/04/30 07:11:32;;;;;;;12.80;11.27;;;;;;;;;;5034148;28;20206;-68
2023/04/30 07:13:58;;;;;;;13.43;10.93;;;;;;;;;;5016096;28;20187;-68
2023/04/30 07:16:26;;;;;;;14.00;11.80;;;;;;;;;;5034124;28;20179;-68
2023/04/30 07:18:52;;;;;;;13.00;11.30;;;;;;;;;;5034225;28;20183;-68
2023/04/30 07:21:18;;;;;;;14.20;11.50;;;;;;;;;;5017051;28;20199;-69
2023/04/30 07:23:44;;;;;;;14.27;11.23;;;;;;;;;;5036848;28;20657;-69
2023/04/30 07:26:10;;;;;;;11.90;10.47;;;;;;;;;;5035537;28;20334;-68
2023/04/30 07:28:36;;;;;;;14.23;11.20;;;;;;;;;;5033666;28;20183;-69
2023/04/30 07:31:02;;;;;;;12.97;10.97;;;;;;;;;;5033870;28;20190;-69
2023/04/30 07:33:29;;;;;;;13.97;11.77;;;;;;;;;;5015685;28;20273;-69
2023/04/30 07:35:57;;;;;;;12.47;10.73;;;;;;;;;;5033709;28;20639;-68
2023/04/30 07:38:23;;;;;;;12.27;11.07;;;;;;;;;;5033721;28;20262;-69
2023/04/30 07:40:49;;;;;;;13.13;11.27;;;;;;;;;;5033460;28;20612;-69
2023/04/30 07:43:15;;;;;;;12.63;10.83;;;;;;;;;;5033342;28;20175;-68
2023/04/30 07:45:43;;;;;;;13.10;10.90;;;;;;;;;;5033321;28;20703;-68
2023/04/30 07:48:09;;;;;;;11.63;10.53;;;;;;;;;;5016025;28;20182;-68
2023/04/30 07:50:35;;;;;;;14.10;11.13;;;;;;;;;;5033764;28;20197;-68
2023/04/30 07:53:01;;;;;;;10.83;9.53;;;;;;;;;;5015222;28;20201;-69
2023/04/30 07:55:27;;;;;;;13.93;10.53;;;;;;;;;;5015726;28;20211;-68
2023/04/30 07:57:53;;;;;;;12.03;9.57;;;;;;;;;;5015374;28;20274;-68
2023/04/30 08:00:19;;;;;;;11.70;10.50;;;;;;;;;;5015369;28;20622;-69
2023/04/30 08:02:47;;;;;;;14.80;11.00;;;;;;;;;;5032799;28;20234;-69
2023/04/30 08:05:13;;;;;;;13.80;10.73;;;;;;;;;;5032955;28;20190;-68
2023/04/30 08:07:40;;;;;;;14.27;10.53;;;;;;;;;;5015138;28;20179;-68
2023/04/30 08:10:06;;;;;;;11.37;10.23;;;;;;;;;;5032775;28;20172;-67
2023/04/30 08:12:35;;;;;;;12.93;11.63;;;;;;;;;;5032716;28;20203;-68
2023/04/30 08:15:05;;;;;;;11.70;10.37;;;;;;;;;;5032737;28;20230;-68
2023/04/30 08:17:31;;;;;;;11.30;10.10;;;;;;;;;;5015090;28;20179;-67
2023/04/30 08:19:57;;;;;;;12.23;10.50;;;;;;;;;;5032692;28;20189;-68
2023/04/30 08:22:23;;;;;;;11.33;9.73;;;;;;;;;;5032644;28;20202;-69
2023/04/30 08:24:49;;;;;;;11.50;9.93;;;;;;;;;;5032764;28;20189;-68
2023/04/30 08:27:16;;;;;;;12.77;10.93;;;;;;;;;;5033248;28;20583;-68
2023/04/30 08:29:41;;;;;;;12.20;10.27;;;;;;;;;;5014784;28;20186;-68
2023/04/30 08:32:08;;;;;;;14.27;10.43;;;;;;;;;;5032560;28;20203;-67
2023/04/30 08:34:34;;;;;;;13.43;11.93;;;;;;;;;;5032711;28;20214;-68
2023/04/30 08:37:00;;;;;;;14.37;11.30;;;;;;;;;;5032580;28;20179;-67
2023/04/30 08:39:26;;;;;;;10.23;9.23;;;;;;;;;;5032831;28;20263;-68
2023/04/30 08:41:55;;;;;;;11.53;9.70;;;;;;;;;;5035881;28;20270;-68
2023/04/30 08:44:24;;;;;;;12.30;10.00;;;;;;;;;;5036357;28;20183;-67
2023/04/30 08:46:54;;;;;;;10.53;9.10;;;;;;;;;;5036401;28;20234;-67
2023/04/30 08:49:21;;;;;;;11.50;10.30;;;;;;;;;;5037199;28;20608;-68
2023/04/30 08:51:47;;;;;;;12.77;11.00;;;;;;;;;;5036627;28;20257;-68
2023/04/30 08:54:13;;;;;;;14.47;9.77;;;;;;;;;;5036280;28;20183;-67
2023/04/30 08:56:42;;;;;;;13.53;10.27;;;;;;;;;;5036252;28;20285;-68
2023/04/30 08:59:08;;;;;;;10.47;9.20;;;;;;;;;;5018448;28;20175;-68
2023/04/30 09:01:34;;;;;;;11.67;9.57;;;;;;;;;;5036153;28;20294;-69
2023/04/30 09:04:03;;;;;;;10.97;8.93;;;;;;;;;;5036263;28;20164;-68
2023/04/30 09:06:30;;;;;;;9.60;8.67;;;;;;;;;;5036431;28;20175;-68
2023/04/30 09:08:56;;;;;;;11.83;9.13;;;;;;;;;;5036304;28;20651;-67
2023/04/30 09:11:23;;;;;;;8.93;8.07;;;;;;;;;;5035951;28;20281;-68
2023/04/30 09:13:51;;;;;;;11.20;8.67;;;;;;;;;;5018307;28;20183;-69
2023/04/30 09:16:17;;;;;;;11.73;9.13;;;;;;;;;;5035841;28;20269;-68
2023/04/30 09:18:43;;;;;;;10.33;8.70;;;;;;;;;;5036136;28;20206;-68
2023/04/30 09:21:09;;;;;;;11.00;8.40;;;;;;;;;;5035741;28;20191;-69
2023/04/30 09:23:35;;;;;;;10.97;8.27;;;;;;;;;;5018050;28;20254;-68
2023/04/30 09:26:01;;;;;;;10.40;7.73;;;;;;;;;;5036051;28;20183;-68
2023/04/30 09:28:28;;;;;;;9.70;7.33;;;;;;;;;;5035938;28;20171;-68
2023/04/30 09:30:56;;;;;;;8.37;7.57;;;;;;;;;;5035796;28;20190;-68
2023/04/30 09:33:22;;;;;;;6.87;6.10;;;;;;;;;;5035889;28;20557;-68
2023/04/30 09:35:48;;;;;;;7.80;5.60;;;;;;;;;;5017622;28;20230;-68
2023/04/30 09:38:27;;;;;;;6.90;6.20;;;;;;;;;;5035538;28;20262;-68
2023/04/30 09:40:53;;;;;;;6.63;6.03;;;;;;;;;;5017532;28;20175;-69
2023/04/30 09:43:19;;;;;;;9.33;6.23;;;;;;;;;;5035608;28;20550;-68
2023/04/30 09:45:47;;;;;;;8.77;5.60;;;;;;;;;;5035413;28;20186;-68
2023/04/30 09:48:31;;;;;;;8.80;6.53;;;;;;;;;;5035242;28;20175;-68
2023/04/30 09:50:57;;;;;;;8.67;5.80;;;;;;;;;;5017248;28;20179;-68
2023/04/30 09:53:23;;;;;;;6.93;5.80;;;;;;;;;;5017482;28;20187;-67
2023/04/30 09:55:50;;;;;;;8.20;6.00;;;;;;;;;;5035718;28;20234;-68
2023/04/30 09:58:17;;;;;;;6.43;5.83;;;;;;;;;;5035223;28;20631;-67
2023/04/30 10:00:45;;;;;;;7.23;6.17;;;;;;;;;;5035162;28;20350;-68
2023/04/30 10:03:12;;;;;;;8.10;6.67;;;;;;;;;;5034894;28;20728;-68
2023/04/30 10:05:40;;;;;;;7.33;5.40;;;;;;;;;;5017186;28;20214;-68
2023/04/30 10:08:07;;;;;;;7.53;5.70;;;;;;;;;;5017201;28;20273;-68
2023/04/30 10:10:33;;;;;;;7.83;5.10;;;;;;;;;;5034931;28;20179;-68
2023/04/30 10:13:02;;;;;;;7.17;4.97;;;;;;;;;;5035730;28;20203;-69
2023/04/30 10:15:30;;;;;;;7.47;5.73;;;;;;;;;;5016969;28;20697;-70
2023/04/30 10:18:04;;;;;;;6.87;5.20;;;;;;;;;;5017003;28;20560;-70
2023/04/30 10:20:35;;;;;;;7.73;4.97;;;;;;;;;;5034965;28;20614;-70
2023/04/30 10:23:01;;;;;;;5.03;4.23;;;;;;;;;;5016810;28;20715;-70
2023/04/30 10:25:27;;;;;;;6.80;4.43;;;;;;;;;;5016975;28;20183;-70
2023/04/30 10:27:53;;;;;;;4.73;3.90;;;;;;;;;;5034560;28;20533;-70
2023/04/30 10:30:21;;;;;;;4.07;3.57;;;;;;;;;;5017051;28;20187;-70
2023/04/30 10:33:10;;;;;;;4.37;3.97;;;;;;;;;;5034370;28;20695;-70
2023/04/30 10:35:43;;;;;;;4.50;3.60;;;;;;;;;;5034484;28;20244;-69
2023/04/30 10:38:15;;;;;;;4.77;3.90;;;;;;;;;;5034569;28;20630;-69
2023/04/30 10:40:45;;;;;;;5.03;4.00;;;;;;;;;;5034488;28;20171;-70
2023/04/30 10:43:11;;;;;;;7.63;4.80;;;;;;;;;;5016818;28;20649;-69
2023/04/30 10:45:38;;;;;;;5.37;3.83;;;;;;;;;;5034335;28;20186;-69
2023/04/30 10:48:05;;;;;;;4.20;3.43;;;;;;;;;;5016397;28;20186;-70
2023/04/30 10:50:31;;;;;;;7.23;3.60;;;;;;;;;;5034432;28;20183;-70
2023/04/30 10:53:04;;;;;;;3.47;2.87;;;;;;;;;;5033973;28;20249;-70
2023/04/30 10:55:30;;;;;;;4.43;3.20;;;;;;;;;;5016316;28;20203;-70
2023/04/30 10:57:57;;;;;;;4.33;3.93;;;;;;;;;;5033902;28;20664;-69
2023/04/30 11:00:30;;;;;;;4.27;3.77;;;;;;;;;;5034275;28;20179;-70
2023/04/30 11:02:57;;;;;;;3.63;2.93;;;;;;;;;;5033430;28;20210;-68
2023/04/30 11:05:35;;;;;;;3.47;3.17;;;;;;;;;;5016077;28;20191;-69
2023/04/30 11:08:01;;;;;;;3.10;2.90;;;;;;;;;;5016844;28;20183;-69
2023/04/30 11:10:28;;;;;;;4.17;3.70;;;;;;;;;;5015910;28;20179;-69
2023/04/30 11:12:54;;;;;;;4.60;3.73;;;;;;;;;;5016040;28;20708;-69
2023/04/30 11:15:27;;;;;;;3.33;3.03;;;;;;;;;;5033557;28;20203;-69
2023/04/30 11:17:57;;;;;;;3.90;3.40;;;;;;;;;;5033648;28;20171;-70
2023/04/30 11:20:24;;;;;;;4.77;3.43;;;;;;;;;;5033786;28;20556;-69
2023/04/30 11:23:10;;;;;;;5.97;4.10;;;;;;;;;;5015781;28;20286;-70
2023/04/30 11:25:42;;;;;;;4.20;3.70;;;;;;;;;;5015805;28;20183;-70
2023/04/30 11:28:14;;;;;;;6.33;3.90;;;;;;;;;;5033381;28;20661;-69
2023/04/30 11:30:41;;;;;;;4.23;3.83;;;;;;;;;;5015610;28;20207;-70
2023/04/30 11:33:07;;;;;;;6.30;3.70;;;;;;;;;;5033441;28;20558;-70
2023/04/30 11:35:33;;;;;;;4.43;3.30;;;;;;;;;;5033553;28;20195;-68
2023/04/30 11:37:59;;;;;;;4.00;3.20;;;;;;;;;;5015549;28;20233;-70
2023/04/30 11:40:26;;;;;;;3.70;3.40;;;;;;;;;;5033378;28;20182;-70
2023/04/30 11:42:51;;;;;;;3.40;3.10;;;;;;;;;;5033386;28;20195;-67
2023/04/30 11:45:19;;;;;;;3.33;3.03;;;;;;;;;;5033322;28;20676;-68
2023/04/30 11:47:52;;;;;;;4.17;3.33;;;;;;;;;;5015503;28;20179;-72
2023/04/30 11:50:20;;;;;;;3.53;3.13;;;;;;;;;;5033091;28;20175;-68
2023/04/30 11:52:50;;;;;;;2.80;2.60;;;;;;;;;;5015278;28;20226;-69
2023/04/30 11:55:17;;;;;;;3.50;3.20;;;;;;;;;;5015330;28;20206;-68
2023/04/30 11:57:44;;;;;;;8.57;2.70;;;;;;;;;;5015259;28;20641;-70
2023/04/30 12:00:11;;;;;;;4.63;3.60;;;;;;;;;;5033004;28;20561;-68
2023/04/30 12:02:38;;;;;;;5.30;3.03;;;;;;;;;;5015270;28;20218;-68
2023/04/30 12:05:04;;;;;;;3.20;2.90;;;;;;;;;;5015276;28;20237;-68
2023/04/30 12:07:30;;;;;;;4.30;2.57;;;;;;;;;;5032918;28;20184;-68
2023/04/30 12:09:56;;;;;;;4.00;2.80;;;;;;;;;;5033226;28;20241;-68
2023/04/30 12:12:31;;;;;;;2.73;2.53;;;;;;;;;;5032776;28;20673;-68
2023/04/30 12:14:58;;;;;;;3.00;2.70;;;;;;;;;;5014053;28;20255;-68
2023/04/30 12:17:34;;;;;;;2.63;2.43;;;;;;;;;;5033070;28;20648;-68
2023/04/30 12:20:00;;;;;;;3.67;2.50;;;;;;;;;;5033242;28;20171;-68
2023/04/30 12:22:26;;;;;;;3.90;2.53;;;;;;;;;;5015128;28;20288;-68
2023/04/30 12:24:53;;;;;;;2.43;2.23;;;;;;;;;;5015325;28;20559;-68
2023/04/30 12:27:21;;;;;;;2.83;2.53;;;;;;;;;;5015018;28;20183;-68
2023/04/30 12:29:48;;;;;;;5.70;2.70;;;;;;;;;;5016061;28;20599;-68
2023/04/30 12:32:15;;;;;;;3.40;2.60;;;;;;;;;;5034323;28;20309;-68
2023/04/30 12:34:41;;;;;;;3.40;2.37;;;;;;;;;;5033992;28;20544;-69
2023/04/30 12:37:07;;;;;;;3.13;2.20;;;;;;;;;;5033152;28;20273;-68
2023/04/30 12:39:33;;;;;;;1.77;1.67;;;;;;;;;;5032847;28;20262;-67
2023/04/30 12:42:00;;;;;;;2.40;2.10;;;;;;;;;;5032686;28;20669;-67
2023/04/30 12:44:26;;;;;;;3.03;2.47;;;;;;;;;;5032838;28;20602;-68
2023/04/30 12:46:55;;;;;;;2.73;2.20;;;;;;;;;;5032850;28;20183;-67
2023/04/30 12:49:22;;;;;;;2.53;2.30;;;;;;;;;;5032834;28;20645;-68
2023/04/30 12:51:48;;;;;;;3.00;2.20;;;;;;;;;;5032846;28;20195;-68
2023/04/30 12:54:14;;;;;;;8.00;2.40;;;;;;;;;;5032337;28;20179;-68
2023/04/30 12:56:56;;;;;;;2.67;2.47;;;;;;;;;;5032503;28;20250;-68
2023/04/30 12:59:21;;;;;;;2.80;2.40;;;;;;;;;;5032870;28;20567;-68
2023/04/30 13:01:47;;;;;;;3.27;2.20;;;;;;;;;;5032187;28;20211;-68
2023/04/30 13:04:13;;;;;;;2.33;2.13;;;;;;;;;;5032627;28;20179;-69
2023/04/30 13:06:39;;;;;;;3.40;2.20;;;;;;;;;;5014581;28;20533;-68
2023/04/30 13:09:05;;;;;;;2.60;2.40;;;;;;;;;;5032839;28;20179;-68
2023/04/30 13:11:31;;;;;;;2.93;2.30;;;;;;;;;;5032348;28;20207;-68
2023/04/30 13:13:57;;;;;;;3.03;2.73;;;;;;;;;;5014523;28;20176;-68
2023/04/30 13:16:23;;;;;;;3.50;2.70;;;;;;;;;;5032113;28;20240;-68
2023/04/30 13:18:49;;;;;;;4.77;2.90;;;;;;;;;;5032270;28;20175;-68
2023/04/30 13:21:15;;;;;;;4.40;3.20;;;;;;;;;;5032195;28;20620;-69
2023/04/30 13:23:41;;;;;;;3.83;3.10;;;;;;;;;;5032854;28;20657;-68
2023/04/30 13:26:07;;;;;;;3.37;3.03;;;;;;;;;;5032714;28;20195;-68
2023/04/30 13:28:33;;;;;;;2.97;2.77;;;;;;;;;;5036062;28;20183;-69
2023/04/30 13:30:59;;;;;;;4.37;3.07;;;;;;;;;;5035633;28;20180;-68
2023/04/30 13:33:25;;;;;;;2.73;2.50;;;;;;;;;;5035867;28;20556;-68
2023/04/30 13:35:51;;;;;;;2.97;2.70;;;;;;;;;;5035817;28;20648;-68
2023/04/30 13:38:17;;;;;;;2.90;2.60;;;;;;;;;;5017975;28;20179;-68
2023/04/30 13:40:43;;;;;;;4.13;2.90;;;;;;;;;;5035699;28;20254;-69
2023/04/30 13:43:09;;;;;;;3.33;2.83;;;;;;;;;;5035503;28;20175;-68
2023/04/30 13:45:35;;;;;;;3.30;2.63;;;;;;;;;;5035246;28;20221;-68
2023/04/30 13:48:01;;;;;;;3.00;2.70;;;;;;;;;;5035337;28;20183;-68
2023/04/30 13:50:27;;;;;;;3.60;2.70;;;;;;;;;;5035296;28;20553;-68
2023/04/30 13:52:53;;;;;;;6.07;3.20;;;;;;;;;;5035488;28;20210;-69
2023/04/30 13:55:19;;;;;;;2.90;2.40;;;;;;;;;;5035432;28;20199;-68
2023/04/30 13:57:45;;;;;;;3.83;3.00;;;;;;;;;;5035358;28;20182;-68
2023/04/30 14:00:11;;;;;;;4.23;2.60;;;;;;;;;;5017547;28;20645;-68
2023/04/30 14:02:37;;;;;;;3.20;2.73;;;;;;;;;;5035023;28;20607;-69
2023/04/30 14:05:03;;;;;;;2.53;2.33;;;;;;;;;;5017196;28;20183;-69
2023/04/30 14:07:29;;;;;;;3.40;2.30;;;;;;;;;;5034949;28;20557;-69
2023/04/30 14:09:55;;;;;;;3.07;2.37;;;;;;;;;;5016979;28;20194;-70
2023/04/30 14:12:23;;;;;;;4.13;2.63;;;;;;;;;;5017117;28;20234;-69
2023/04/30 14:14:49;;;;;;;4.03;2.40;;;;;;;;;;5034807;28;20206;-68
2023/04/30 14:17:15;;;;;;;2.93;2.67;;;;;;;;;;5017017;28;20554;-68
2023/04/30 14:19:41;;;;;;;4.70;2.60;;;;;;;;;;5016910;28;20184;-68
2023/04/30 14:22:07;;;;;;;5.93;3.90;;;;;;;;;;5016805;28;20199;-68
2023/04/30 14:24:33;;;;;;;3.57;2.80;;;;;;;;;;5034620;28;20183;-68
2023/04/30 14:26:59;;;;;;;3.13;2.50;;;;;;;;;;5035104;28;20221;-69